Metar z połowy godziny Komunikat METAR ze strony awiacja.imgw.pl Metar Mil EPLK METAR EPLK 230730Z 27012KT 240V300 9999 SCT017 06/06 Q1020 RMK 064 097 4/4=